Retsil, Washington
Current Conditions -  °F | °C
As of 8:15 AM on Tuesday 21 Oct 2014 (Local Time) from KPWT Reporting Station
Overcast Overcast  
Wind Chill: 54°   Ceiling: 1400
Heat Index: 54°   Visibility: 9mi
Dew Point: 52°   Wind: 9mph
Humidity: 94%   Direction: 180°S
Pressure: 29.88"   Gusts: 16mph
Location:  47.53°N, 122.59°W
Report Text: KPWT 211515Z AUTO 18008G14KT 9SM SCT004 BKN014 OVC032 12/11 A2988 RMK AO1 P0004
Loading
Personal Weather Stations






























Interactive Weather Map
Tropical Storm Tracking
New forecast layout! Learn more

10-Day Weather Forecast

Advertisements
Track Severe Weather on mobile